createdAt,value
2023-10-27T00:01:27.447Z,41.30
2023-10-27T00:04:13.676Z,36.80
2023-10-27T00:07:00.788Z,40.40
2023-10-27T00:09:47.306Z,43.73
2023-10-27T00:12:33.753Z,44.80
2023-10-27T00:15:20.493Z,37.70
2023-10-27T00:18:08.284Z,34.37
2023-10-27T00:20:54.447Z,36.40
2023-10-27T00:23:40.685Z,40.23
2023-10-27T00:26:27.144Z,39.47
2023-10-27T00:29:13.630Z,33.83
2023-10-27T00:32:00.093Z,35.73
2023-10-27T00:34:47.784Z,36.40
2023-10-27T00:37:35.233Z,36.43
2023-10-27T00:40:22.217Z,34.37
2023-10-27T00:43:08.885Z,40.07
2023-10-27T00:45:56.023Z,35.10
2023-10-27T00:48:43.034Z,36.90
2023-10-27T00:51:30.931Z,32.87
2023-10-27T00:54:19.631Z,30.30
2023-10-27T00:57:07.545Z,33.13
2023-10-27T00:59:54.215Z,29.07
2023-10-27T01:02:40.794Z,38.03
2023-10-27T01:05:27.185Z,34.37
2023-10-27T01:08:14.754Z,29.87
2023-10-27T01:11:02.362Z,29.93
2023-10-27T01:13:52.121Z,37.90
2023-10-27T01:16:38.612Z,31.93
2023-10-27T01:19:24.990Z,27.10
2023-10-27T01:22:13.497Z,32.83
2023-10-27T01:25:01.293Z,28.53
2023-10-27T01:27:48.025Z,38.37
2023-10-27T01:30:34.349Z,34.00
2023-10-27T01:33:20.623Z,34.23
2023-10-27T01:36:07.512Z,36.20
2023-10-27T01:38:53.905Z,31.03
2023-10-27T01:41:41.474Z,36.53
2023-10-27T01:44:28.091Z,35.47
2023-10-27T01:47:14.253Z,37.47
2023-10-27T01:50:00.876Z,31.93
2023-10-27T01:52:47.090Z,36.07
2023-10-27T01:55:33.488Z,38.07
2023-10-27T01:58:21.007Z,35.80
2023-10-27T02:01:07.627Z,32.97
2023-10-27T02:03:54.237Z,41.57
2023-10-27T02:06:40.548Z,36.07
2023-10-27T02:09:27.235Z,35.40
2023-10-27T02:12:13.597Z,35.03
2023-10-27T02:15:01.548Z,30.83
2023-10-27T02:17:47.908Z,30.00
2023-10-27T02:20:34.521Z,30.60
2023-10-27T02:23:20.663Z,30.97
2023-10-27T02:26:07.026Z,28.93
2023-10-27T02:28:53.530Z,30.77
2023-10-27T02:31:42.068Z,29.17
2023-10-27T02:34:28.220Z,27.23
2023-10-27T02:37:14.569Z,30.23
2023-10-27T02:40:01.061Z,29.80
2023-10-27T02:42:47.396Z,29.47
2023-10-27T02:45:33.923Z,29.67
2023-10-27T02:48:21.482Z,32.07
2023-10-27T02:51:07.888Z,29.60
2023-10-27T02:53:54.142Z,31.50
2023-10-27T02:56:40.456Z,29.73
2023-10-27T02:59:27.156Z,25.83
2023-10-27T03:02:13.414Z,31.03
2023-10-27T03:05:01.494Z,28.30
2023-10-27T03:07:48.253Z,32.27
2023-10-27T03:10:35.143Z,28.10
2023-10-27T03:13:21.473Z,28.13
2023-10-27T03:16:08.141Z,29.60
2023-10-27T03:21:44.633Z,28.00
2023-10-27T03:24:31.137Z,26.67
2023-10-27T03:27:17.416Z,28.47
2023-10-27T03:30:04.258Z,30.53
2023-10-27T03:32:50.759Z,28.43
2023-10-27T03:35:38.862Z,32.03
2023-10-27T03:38:27.105Z,36.90
2023-10-27T03:41:13.321Z,30.53
2023-10-27T03:43:59.757Z,32.67
2023-10-27T03:46:45.985Z,33.30
2023-10-27T03:49:32.471Z,27.47
2023-10-27T03:52:18.650Z,33.20
2023-10-27T03:55:08.921Z,31.13
2023-10-27T03:57:56.357Z,30.30
2023-10-27T04:00:43.496Z,28.13
2023-10-27T04:03:32.924Z,30.90
2023-10-27T04:06:19.240Z,31.93
2023-10-27T04:09:06.231Z,26.37
2023-10-27T04:11:54.078Z,32.97
2023-10-27T04:14:40.546Z,33.03
2023-10-27T04:17:27.235Z,28.20
2023-10-27T04:20:13.430Z,24.47
2023-10-27T04:23:00.027Z,29.47
2023-10-27T04:25:46.273Z,25.30
2023-10-27T04:28:34.008Z,27.60
2023-10-27T04:31:20.257Z,24.10
2023-10-27T04:34:06.484Z,29.97
2023-10-27T04:36:53.274Z,32.17
2023-10-27T04:39:39.601Z,26.53
2023-10-27T04:42:26.071Z,25.60
2023-10-27T04:45:13.625Z,25.03
2023-10-27T04:48:00.205Z,23.27
2023-10-27T04:50:46.708Z,27.40
2023-10-27T04:53:33.519Z,30.07
2023-10-27T04:56:20.085Z,26.03
2023-10-27T04:59:07.041Z,22.70
2023-10-27T05:01:54.865Z,26.83
2023-10-27T05:04:41.339Z,26.10
2023-10-27T05:07:27.871Z,26.63
2023-10-27T05:10:13.968Z,27.23
2023-10-27T05:13:01.053Z,27.00
2023-10-27T05:15:54.582Z,26.30
2023-10-27T05:18:42.637Z,23.57
2023-10-27T05:21:28.848Z,28.00
2023-10-27T05:24:15.163Z,24.10
2023-10-27T05:27:02.165Z,25.77
2023-10-27T05:29:48.519Z,23.10
2023-10-27T05:32:35.175Z,25.23
2023-10-27T05:35:23.013Z,21.97
2023-10-27T05:38:09.240Z,28.10
2023-10-27T05:40:56.215Z,26.13
2023-10-27T05:43:42.766Z,24.33
2023-10-27T05:46:30.098Z,24.87
2023-10-27T05:49:16.738Z,27.47
2023-10-27T05:52:05.164Z,24.77
2023-10-27T05:54:51.618Z,28.70
2023-10-27T05:57:38.052Z,26.90
2023-10-27T06:00:24.606Z,24.60
2023-10-27T06:03:11.416Z,30.20
2023-10-27T06:05:58.326Z,29.10
2023-10-27T06:08:46.641Z,26.93
2023-10-27T06:11:33.167Z,25.63
2023-10-27T06:14:21.270Z,24.93
2023-10-27T06:17:08.770Z,24.57
2023-10-27T06:20:05.693Z,21.90
2023-10-27T06:23:01.546Z,24.43
2023-10-27T06:25:49.697Z,23.60
2023-10-27T06:28:36.549Z,25.13
2023-10-27T06:31:24.719Z,25.93
2023-10-27T06:34:11.585Z,27.50
2023-10-27T06:37:01.478Z,29.13
2023-10-27T06:39:48.051Z,35.47
2023-10-27T06:42:36.045Z,26.97
2023-10-27T06:45:23.694Z,30.03
2023-10-27T06:48:10.453Z,24.03
2023-10-27T06:50:57.300Z,24.10
2023-10-27T06:53:44.287Z,26.63
2023-10-27T06:56:30.823Z,24.00
2023-10-27T06:59:18.393Z,26.23
2023-10-27T07:02:05.331Z,25.70
2023-10-27T07:04:52.026Z,21.17
2023-10-27T07:07:39.398Z,28.03
2023-10-27T07:10:26.911Z,24.70
2023-10-27T07:13:13.451Z,24.43
2023-10-27T07:16:01.568Z,20.87
2023-10-27T07:18:47.801Z,21.83
2023-10-27T07:21:35.163Z,28.40
2023-10-27T07:24:21.776Z,23.43
2023-10-27T07:27:08.301Z,22.10
2023-10-27T07:29:54.591Z,26.97
2023-10-27T07:32:42.758Z,18.43
2023-10-27T07:35:29.370Z,20.83
2023-10-27T07:38:15.584Z,24.03
2023-10-27T07:41:02.464Z,21.50
2023-10-27T07:43:48.975Z,22.07
2023-10-27T07:46:35.803Z,22.73
2023-10-27T07:49:24.336Z,22.20
2023-10-27T07:52:10.886Z,21.63
2023-10-27T07:54:57.659Z,24.47
2023-10-27T07:57:44.082Z,23.30
2023-10-27T08:00:31.545Z,26.10
2023-10-27T08:03:18.349Z,22.67
2023-10-27T08:06:09.491Z,23.17
2023-10-27T08:08:56.327Z,20.20
2023-10-27T08:11:42.624Z,23.10
2023-10-27T08:14:29.428Z,25.27
2023-10-27T08:17:15.999Z,30.40
2023-10-27T08:20:02.613Z,29.90
2023-10-27T08:22:50.230Z,26.83
2023-10-27T08:25:37.930Z,25.10
2023-10-27T08:28:24.016Z,22.70
2023-10-27T08:31:13.148Z,22.50
2023-10-27T08:34:01.322Z,18.43
2023-10-27T08:36:47.700Z,22.67
2023-10-27T08:39:36.331Z,22.40
2023-10-27T08:42:22.750Z,23.90
2023-10-27T08:45:10.085Z,25.50
2023-10-27T08:47:56.808Z,21.43
2023-10-27T08:50:43.236Z,20.50
2023-10-27T08:53:29.826Z,16.93
2023-10-27T08:56:17.457Z,21.63
2023-10-27T08:59:04.894Z,22.60
2023-10-27T09:01:51.497Z,17.30
2023-10-27T09:04:44.302Z,20.00
2023-10-27T09:07:31.954Z,21.93
2023-10-27T09:10:19.966Z,24.93
2023-10-27T09:13:08.432Z,21.20
2023-10-27T09:15:55.080Z,20.23
2023-10-27T09:18:41.346Z,23.17
2023-10-27T09:21:34.848Z,27.27
2023-10-27T09:24:25.898Z,17.93
2023-10-27T09:27:13.009Z,18.90
2023-10-27T09:30:00.876Z,16.27
2023-10-27T09:32:47.486Z,19.53
2023-10-27T09:35:33.735Z,19.60
2023-10-27T09:38:22.017Z,18.30
2023-10-27T09:41:10.080Z,19.30
2023-10-27T09:43:57.213Z,21.50
2023-10-27T09:46:50.305Z,21.53
2023-10-27T09:49:40.615Z,21.27
2023-10-27T09:52:30.632Z,21.13
2023-10-27T09:55:20.363Z,16.90
2023-10-27T09:58:06.965Z,19.70
2023-10-27T10:00:53.777Z,18.77
2023-10-27T10:03:44.633Z,19.33
2023-10-27T10:06:46.697Z,19.90
2023-10-27T10:09:43.362Z,19.37
2023-10-27T10:13:00.740Z,16.77
2023-10-27T10:15:48.540Z,16.93
2023-10-27T10:18:58.546Z,19.53
2023-10-27T10:21:45.232Z,15.43
2023-10-27T10:24:31.818Z,20.07
2023-10-27T10:27:19.330Z,19.33
2023-10-27T10:30:21.501Z,22.30
2023-10-27T10:33:22.943Z,18.20
2023-10-27T10:36:32.174Z,17.70
2023-10-27T10:39:18.717Z,23.63
2023-10-27T10:42:05.986Z,17.53
2023-10-27T10:44:52.282Z,17.40
2023-10-27T10:47:38.664Z,17.83
2023-10-27T10:50:31.242Z,18.20
2023-10-27T10:53:23.161Z,19.17
2023-10-27T10:56:10.329Z,15.60
2023-10-27T10:58:57.562Z,18.67
2023-10-27T11:01:44.013Z,19.70
2023-10-27T11:07:21.891Z,11.63
2023-10-27T11:10:23.008Z,14.10
2023-10-27T11:13:09.525Z,16.20
2023-10-27T11:15:55.722Z,12.13
2023-10-27T11:18:42.098Z,12.40
2023-10-27T11:21:30.432Z,11.63
2023-10-27T11:24:16.681Z,13.67
2023-10-27T11:27:05.190Z,8.93
2023-10-27T11:29:58.486Z,9.00
2023-10-27T11:32:44.802Z,12.47
2023-10-27T11:35:31.168Z,9.13
2023-10-27T11:38:17.430Z,7.70
2023-10-27T11:41:14.054Z,8.10
2023-10-27T11:44:01.610Z,8.47
2023-10-27T11:46:48.664Z,9.53
2023-10-27T11:49:35.153Z,11.23
2023-10-27T11:52:22.758Z,9.97
2023-10-27T11:55:10.117Z,10.53
2023-10-27T11:57:56.384Z,9.53
2023-10-27T12:00:44.047Z,9.43
2023-10-27T12:03:30.606Z,8.43
2023-10-27T12:06:17.179Z,8.33
2023-10-27T12:09:04.486Z,8.47
2023-10-27T12:11:51.280Z,8.80
2023-10-27T12:14:38.797Z,9.77
2023-10-27T12:17:26.558Z,8.77
2023-10-27T12:20:13.860Z,7.53
2023-10-27T12:23:00.530Z,8.47
2023-10-27T12:25:47.314Z,8.33
2023-10-27T12:28:33.621Z,8.67
2023-10-27T12:31:20.915Z,9.77
2023-10-27T12:34:09.975Z,10.67
2023-10-27T12:36:57.324Z,9.00
2023-10-27T12:39:43.872Z,8.67
2023-10-27T12:42:30.379Z,5.80
2023-10-27T12:45:17.375Z,7.77
2023-10-27T12:48:03.759Z,6.30
2023-10-27T12:50:51.398Z,6.13
2023-10-27T12:53:38.323Z,6.77
2023-10-27T12:56:24.739Z,5.53
2023-10-27T12:59:11.201Z,5.90
2023-10-27T13:01:58.113Z,5.97
2023-10-27T13:04:44.889Z,5.80
2023-10-27T13:07:32.981Z,4.70
2023-10-27T13:10:20.244Z,5.67
2023-10-27T13:13:07.775Z,5.47
2023-10-27T13:15:54.086Z,5.77
2023-10-27T13:18:42.224Z,5.57
2023-10-27T13:21:29.260Z,7.57
2023-10-27T13:24:16.719Z,8.07
2023-10-27T13:27:03.686Z,6.70
2023-10-27T13:29:50.399Z,7.07
2023-10-27T13:32:39.167Z,5.50
2023-10-27T13:35:27.134Z,7.87
2023-10-27T13:38:15.301Z,7.27
2023-10-27T13:41:05.067Z,4.90
2023-10-27T13:43:51.906Z,5.53
2023-10-27T13:46:38.702Z,6.93
2023-10-27T13:49:24.916Z,6.07
2023-10-27T13:52:12.735Z,6.80
2023-10-27T13:54:59.570Z,5.47
2023-10-27T13:57:47.321Z,6.43
2023-10-27T14:00:34.024Z,7.37
2023-10-27T14:03:20.939Z,3.97
2023-10-27T14:06:08.967Z,5.60
2023-10-27T14:08:56.184Z,5.70
2023-10-27T14:11:42.973Z,4.27
2023-10-27T14:14:31.976Z,6.07
2023-10-27T14:17:18.551Z,4.17
2023-10-27T14:20:07.031Z,3.70
2023-10-27T14:22:53.789Z,3.27
2023-10-27T14:25:41.813Z,3.13
2023-10-27T14:28:30.527Z,4.17
2023-10-27T14:31:18.330Z,2.43
2023-10-27T14:34:06.559Z,2.87
2023-10-27T14:36:52.920Z,2.13
2023-10-27T14:39:42.302Z,3.47
2023-10-27T14:42:28.559Z,3.13
2023-10-27T14:45:15.689Z,4.33
2023-10-27T14:48:03.731Z,2.97
2023-10-27T14:50:57.916Z,3.87
2023-10-27T14:53:44.391Z,4.83
2023-10-27T14:56:30.848Z,4.23
2023-10-27T14:59:16.917Z,4.53
2023-10-27T15:02:03.491Z,5.90
2023-10-27T15:04:51.637Z,10.43
2023-10-27T15:07:38.377Z,5.90
2023-10-27T15:10:24.520Z,6.03
2023-10-27T15:13:10.772Z,5.00
2023-10-27T15:16:05.797Z,5.53
2023-10-27T15:18:51.965Z,8.40
2023-10-27T15:21:40.348Z,9.37
2023-10-27T15:24:27.985Z,5.90
2023-10-27T15:27:14.385Z,4.47
2023-10-27T15:30:01.012Z,4.97
2023-10-27T15:32:47.535Z,6.40
2023-10-27T15:35:34.148Z,3.77
2023-10-27T15:38:21.789Z,4.00
2023-10-27T15:41:24.822Z,5.80
2023-10-27T15:44:11.294Z,5.90
2023-10-27T15:46:58.410Z,4.63
2023-10-27T15:49:45.102Z,6.13
2023-10-27T15:52:31.533Z,12.17
2023-10-27T15:55:19.361Z,5.30
2023-10-27T15:58:06.425Z,6.83
2023-10-27T16:00:53.144Z,7.97
2023-10-27T16:03:39.813Z,8.50
2023-10-27T16:06:26.149Z,7.80
2023-10-27T16:09:35.385Z,7.97
2023-10-27T16:12:20.329Z,7.50
2023-10-27T16:15:08.390Z,6.53
2023-10-27T16:17:54.980Z,9.67
2023-10-27T16:20:42.077Z,7.77
2023-10-27T16:23:28.500Z,8.60
2023-10-27T16:26:15.191Z,8.97
2023-10-27T16:29:03.125Z,7.93
2023-10-27T16:31:49.273Z,7.00
2023-10-27T16:34:35.765Z,11.13
2023-10-27T16:37:22.177Z,17.70
2023-10-27T16:40:09.653Z,15.50
2023-10-27T16:42:56.769Z,9.60
2023-10-27T16:45:44.906Z,9.13
2023-10-27T16:48:31.210Z,9.93
2023-10-27T16:51:18.843Z,17.87
2023-10-27T16:54:05.648Z,63.40
2023-10-27T16:56:53.314Z,22.03
2023-10-27T16:59:40.999Z,19.37
2023-10-27T17:02:28.679Z,25.87
2023-10-27T17:05:16.668Z,32.13
2023-10-27T17:08:03.632Z,10.57
2023-10-27T17:10:54.820Z,11.50
2023-10-27T17:13:41.228Z,10.87
2023-10-27T17:16:27.669Z,12.27
2023-10-27T17:19:15.566Z,11.00
2023-10-27T17:22:02.114Z,9.37
2023-10-27T17:24:55.020Z,9.63
2023-10-27T17:27:42.108Z,9.63
2023-10-27T17:30:28.912Z,10.30
2023-10-27T17:33:15.334Z,7.60
2023-10-27T17:36:10.224Z,9.63
2023-10-27T17:38:57.303Z,10.47
2023-10-27T17:41:46.132Z,11.93
2023-10-27T17:44:35.874Z,12.53
2023-10-27T17:47:22.940Z,12.10
2023-10-27T17:50:09.645Z,9.27
2023-10-27T17:52:57.597Z,9.70
2023-10-27T17:55:50.619Z,12.20
2023-10-27T17:58:36.934Z,11.43
2023-10-27T18:01:23.301Z,9.37
2023-10-27T18:04:10.221Z,12.13
2023-10-27T18:06:56.961Z,11.50
2023-10-27T18:09:45.669Z,12.57
2023-10-27T18:12:32.226Z,12.80
2023-10-27T18:15:19.691Z,11.93
2023-10-27T18:18:06.921Z,12.67
2023-10-27T18:20:53.606Z,12.67
2023-10-27T18:23:40.053Z,9.70
2023-10-27T18:26:29.469Z,11.53
2023-10-27T18:29:16.098Z,14.20
2023-10-27T18:32:02.775Z,13.23
2023-10-27T18:34:49.204Z,9.63
2023-10-27T18:37:35.866Z,12.07
2023-10-27T18:40:22.632Z,12.57
2023-10-27T18:43:12.075Z,11.27
2023-10-27T18:45:58.855Z,10.10
2023-10-27T18:48:45.753Z,11.40
2023-10-27T18:51:37.581Z,13.43
2023-10-27T18:54:24.188Z,10.47
2023-10-27T18:57:10.826Z,10.70
2023-10-27T18:59:58.566Z,14.13
2023-10-27T19:02:46.337Z,7.17
2023-10-27T19:05:32.908Z,8.07
2023-10-27T19:08:19.050Z,8.70
2023-10-27T19:11:07.202Z,7.37
2023-10-27T19:13:53.678Z,10.07
2023-10-27T19:16:41.779Z,7.97
2023-10-27T19:19:27.966Z,9.03
2023-10-27T19:22:14.274Z,7.27
2023-10-27T19:25:01.041Z,8.83
2023-10-27T19:27:47.610Z,8.87
2023-10-27T19:30:34.217Z,7.57
2023-10-27T19:33:23.016Z,7.80
2023-10-27T19:36:10.459Z,7.60
2023-10-27T19:38:56.991Z,9.07
2023-10-27T19:41:43.434Z,10.00
2023-10-27T19:44:29.888Z,8.00
2023-10-27T19:47:16.181Z,7.87
2023-10-27T19:50:05.921Z,10.20
2023-10-27T19:52:52.715Z,8.77
2023-10-27T19:55:40.337Z,12.07
2023-10-27T19:58:26.984Z,8.63
2023-10-27T20:01:15.364Z,7.33
2023-10-27T20:04:02.256Z,9.80
2023-10-27T20:06:49.844Z,6.63
2023-10-27T20:09:36.603Z,9.93
2023-10-27T20:12:23.136Z,7.33
2023-10-27T20:15:11.708Z,8.87
2023-10-27T20:17:58.088Z,7.60
2023-10-27T20:20:45.383Z,9.43
2023-10-27T20:23:33.627Z,7.70
2023-10-27T20:26:20.160Z,8.97
2023-10-27T20:29:08.496Z,10.73
2023-10-27T20:31:56.912Z,13.20
2023-10-27T20:34:43.532Z,8.97
2023-10-27T20:37:30.150Z,11.57
2023-10-27T20:40:18.572Z,10.53
2023-10-27T20:43:04.963Z,12.40
2023-10-27T20:45:51.252Z,9.40
2023-10-27T20:48:37.750Z,9.70
2023-10-27T20:51:24.450Z,9.10
2023-10-27T20:54:11.022Z,10.07
2023-10-27T20:56:58.813Z,10.97
2023-10-27T20:59:45.375Z,9.70
2023-10-27T21:02:32.098Z,6.97
2023-10-27T21:05:19.037Z,15.50
2023-10-27T21:08:06.095Z,12.00
2023-10-27T21:10:53.021Z,14.47
2023-10-27T21:13:40.991Z,11.07
2023-10-27T21:16:27.258Z,11.17
2023-10-27T21:19:13.351Z,8.87
2023-10-27T21:21:59.776Z,13.37
2023-10-27T21:24:46.293Z,10.20
2023-10-27T21:27:32.736Z,9.13
2023-10-27T21:30:20.720Z,14.47
2023-10-27T21:33:08.946Z,9.53
2023-10-27T21:35:55.420Z,16.77
2023-10-27T21:38:41.579Z,13.03
2023-10-27T21:41:28.193Z,12.17
2023-10-27T21:44:14.417Z,15.37
2023-10-27T21:47:02.553Z,11.50
2023-10-27T21:49:49.042Z,7.47
2023-10-27T21:52:35.973Z,14.10
2023-10-27T21:55:22.924Z,12.13
2023-10-27T21:58:09.489Z,9.73
2023-10-27T22:00:57.055Z,10.63
2023-10-27T22:03:46.010Z,9.03
2023-10-27T22:06:32.910Z,8.97
2023-10-27T22:09:19.531Z,15.17
2023-10-27T22:12:06.825Z,12.47
2023-10-27T22:14:55.169Z,6.87
2023-10-27T22:17:41.483Z,10.40
2023-10-27T22:20:30.955Z,7.50
2023-10-27T22:23:18.744Z,10.60
2023-10-27T22:26:06.304Z,8.90
2023-10-27T22:28:52.983Z,10.80
2023-10-27T22:31:40.162Z,11.87
2023-10-27T22:34:26.483Z,10.33
2023-10-27T22:37:14.232Z,12.87
2023-10-27T22:40:01.126Z,7.43
2023-10-27T22:42:48.343Z,10.90
2023-10-27T22:45:38.408Z,9.63
2023-10-27T22:48:24.700Z,12.40
2023-10-27T22:51:12.704Z,18.93
2023-10-27T22:54:00.284Z,9.00
2023-10-27T22:56:48.894Z,8.70
2023-10-27T22:59:38.103Z,10.27
2023-10-27T23:02:25.661Z,13.37
2023-10-27T23:05:12.465Z,11.77
2023-10-27T23:07:58.743Z,12.07
2023-10-27T23:10:46.338Z,16.83
2023-10-27T23:13:33.020Z,11.60
2023-10-27T23:16:19.837Z,8.77
2023-10-27T23:19:06.581Z,9.03
2023-10-27T23:21:53.713Z,6.77
2023-10-27T23:24:41.076Z,11.13
2023-10-27T23:27:29.046Z,7.57
2023-10-27T23:30:16.347Z,10.77
2023-10-27T23:33:02.686Z,9.47
2023-10-27T23:35:56.916Z,10.43
2023-10-27T23:38:43.459Z,11.67
2023-10-27T23:41:30.106Z,10.13
2023-10-27T23:44:19.372Z,9.10
2023-10-27T23:47:06.460Z,9.80
2023-10-27T23:49:52.720Z,9.53
2023-10-27T23:52:39.032Z,8.10
2023-10-27T23:55:25.554Z,10.67
2023-10-27T23:58:11.821Z,8.73
